createdAt,value
2023-03-06T00:00:27.217Z,-0.17
2023-03-06T00:15:28.612Z,-0.16
2023-03-06T00:30:30.021Z,-0.08
2023-03-06T00:45:31.511Z,-0.19
2023-03-06T01:00:32.963Z,-0.03
2023-03-06T01:15:34.369Z,-0.06
2023-03-06T01:30:35.816Z,-0.14
2023-03-06T01:45:37.262Z,-0.21
2023-03-06T02:00:38.692Z,-0.10
2023-03-06T02:15:40.120Z,-0.02
2023-03-06T02:30:41.600Z,0.09
2023-03-06T02:45:45.149Z,-0.09
2023-03-06T03:00:46.749Z,-0.20
2023-03-06T03:15:48.425Z,0.04
2023-03-06T03:30:49.908Z,0.03
2023-03-06T03:45:51.375Z,0.05
2023-03-06T04:00:53.192Z,-0.03
2023-03-06T04:15:54.745Z,0.02
2023-03-06T04:30:57.881Z,0.04
2023-03-06T04:45:59.776Z,0.08
2023-03-06T05:01:01.264Z,-0.09
2023-03-06T05:16:02.802Z,-0.02
2023-03-06T05:31:04.224Z,0.01
2023-03-06T05:46:05.646Z,-0.02
2023-03-06T06:01:07.041Z,0.00
2023-03-06T06:16:08.551Z,0.16
2023-03-06T06:31:10.357Z,0.17
2023-03-06T06:46:41.876Z,0.21
2023-03-06T07:01:33.110Z,0.45
2023-03-06T07:16:34.913Z,0.70
2023-03-06T07:31:36.288Z,0.90
2023-03-06T07:46:37.814Z,1.13
2023-03-06T08:01:40.191Z,1.13
2023-03-06T08:16:41.649Z,1.49
2023-03-06T08:31:43.147Z,1.75
2023-03-06T08:46:44.665Z,1.89
2023-03-06T09:01:46.705Z,1.84
2023-03-06T09:16:48.236Z,2.46
2023-03-06T09:31:49.662Z,2.14
2023-03-06T09:46:51.016Z,1.35
2023-03-06T10:01:52.424Z,1.30
2023-03-06T10:16:53.858Z,2.27
2023-03-06T10:31:55.208Z,2.11
2023-03-06T10:46:56.570Z,2.31
2023-03-06T11:01:59.107Z,2.36
2023-03-06T11:17:00.575Z,2.55
2023-03-06T11:32:02.102Z,2.78
2023-03-06T11:47:03.557Z,3.25
2023-03-06T12:02:05.030Z,3.28
2023-03-06T12:17:06.904Z,3.74
2023-03-06T12:32:08.710Z,3.72
2023-03-06T12:47:10.413Z,3.21
2023-03-06T13:02:11.850Z,3.67
2023-03-06T13:17:13.255Z,3.61
2023-03-06T13:32:14.665Z,3.52
2023-03-06T13:47:16.017Z,3.26
2023-03-06T14:02:17.441Z,3.15
2023-03-06T14:17:19.125Z,3.21
2023-03-06T14:32:20.511Z,3.10
2023-03-06T14:47:22.175Z,3.34
2023-03-06T15:02:23.631Z,3.35
2023-03-06T15:17:25.099Z,3.42
2023-03-06T15:32:26.476Z,3.26
2023-03-06T15:47:27.912Z,3.19
2023-03-06T16:02:29.279Z,2.95
2023-03-06T16:17:30.623Z,2.74
2023-03-06T16:32:32.089Z,2.44
2023-03-06T16:47:33.497Z,2.02
2023-03-06T17:02:34.937Z,1.49
2023-03-06T17:17:36.366Z,1.17
2023-03-06T17:32:37.823Z,1.06
2023-03-06T17:47:39.223Z,1.05
2023-03-06T18:02:41.033Z,0.94
2023-03-06T18:17:42.539Z,0.98
2023-03-06T18:32:43.978Z,1.01
2023-03-06T18:47:45.408Z,0.98
2023-03-06T19:02:46.782Z,1.01
2023-03-06T19:17:48.197Z,1.03
2023-03-06T19:32:49.673Z,0.97
2023-03-06T19:47:53.647Z,0.89
2023-03-06T20:02:54.999Z,0.91
2023-03-06T20:17:56.852Z,0.83
2023-03-06T20:32:58.368Z,0.78
2023-03-06T20:47:59.726Z,0.73
2023-03-06T21:03:01.115Z,0.72
2023-03-06T21:18:02.481Z,0.74
2023-03-06T21:33:03.864Z,0.71
2023-03-06T21:48:05.234Z,0.68
2023-03-06T22:03:06.652Z,0.64
2023-03-06T22:18:15.640Z,0.62
2023-03-06T22:33:16.894Z,0.68
2023-03-06T22:48:18.243Z,0.66
2023-03-06T23:03:19.624Z,0.68
2023-03-06T23:18:20.989Z,0.72
2023-03-06T23:33:40.774Z,0.71
2023-03-06T23:48:42.163Z,0.88
